ソチ の空港の天気 - METARとTAF

ソチ空港 ( URSS / AER ) - ロシア ソチ
飛行場実況気象(Metar)
観測時間04/25 19:00 MSK (04/25 16:00 UTC)
風向・風速南 2m/s
視程10km以上
天気現象
少しの雲 雲底高度 910m
気温10℃
湿度62%
気圧1031hPa
METARURSS 251600Z 18002MPS 9999 FEW030 10/03 Q1031 R06/090070 R02/090070 NOSIG RMK R02/20001MPS MT OBSC QFE772
過去の天気等 Google飛行場航空写真 Wunderground天気予報

過去48時間のMETAR

飛行場予報(TAF)
発表時間: 4/25 16:56 MSK (4/25 13:56 UTC)
予報対象時間: 25日18時 MSK ~ 26日18時 MSK
風向・風速南 5m/s 瞬間風速 10m/s
視程10km以上
全天の4割程度の雲 雲底高度 910m
25日19時 MSK ~ 25日20時 MSK に徐々に
風向・風速北東 6m/s
全天の4割程度の雲 雲底高度 3,050m
26日9時 MSK ~ 26日10時 MSK に徐々に
風向・風速西北西 5m/s 瞬間風速 10m/s
TAF URSS 251356Z 2515/2615 19005G10MPS 9999 SCT030
BECMG 2516/2517 05006MPS SCT100
BECMG 2606/2607 29005G10MPS